Time;durP1;ratioP1;P1;durP2;ratioP2;P2;SDS_P1;SDS_P2;PMS_P1;PMS_P2;Temp;Humidity;BMP_temperature;BMP_pressure;BME280_temperature;BME280_humidity;BME280_pressure;Samples;Min_cycle;Max_cycle;Signal;HPM_P1;HPM_P2
2022/06/30 00:05:29;;;;;;;20.90;3.30;;;;;;;17.76;100.00;99230.84;8441032;28;20085;-73
2022/06/30 00:09:31;;;;;;;49.72;3.75;;;;;;;17.73;100.00;99138.66;8446334;28;20055;-72
2022/06/30 00:13:35;;;;;;;7.32;3.20;;;;;;;17.75;100.00;99204.66;8456288;28;20118;-71
2022/06/30 00:17:36;;;;;;;10.93;3.05;;;;;;;17.75;100.00;99234.72;8427606;28;20051;-71
2022/06/30 00:21:37;;;;;;;24.95;4.80;;;;;;;17.86;100.00;99257.63;8453836;28;20520;-70
2022/06/30 00:25:37;;;;;;;10.77;4.00;;;;;;;17.84;100.00;99254.44;8453255;28;20057;-73
2022/06/30 00:29:39;;;;;;;23.17;4.53;;;;;;;17.93;100.00;99214.06;8408283;28;20126;-72
2022/06/30 00:33:40;;;;;;;18.23;4.40;;;;;;;17.85;100.00;99118.66;8402686;28;20043;-72
2022/06/30 00:37:41;;;;;;;11.05;4.95;;;;;;;17.85;100.00;99119.44;8451525;28;20064;-71
2022/06/30 00:41:44;;;;;;;9.93;4.88;;;;;;;17.86;100.00;99104.63;8398779;28;20047;-71
2022/06/30 00:45:46;;;;;;;7.97;3.90;;;;;;;17.92;100.00;99125.06;8454759;28;20134;-71
2022/06/30 00:49:47;;;;;;;8.50;4.20;;;;;;;17.90;100.00;99121.91;8454872;28;20093;-72
2022/06/30 00:53:49;;;;;;;5.70;3.30;;;;;;;17.91;100.00;99123.47;8446842;28;20067;-71
2022/06/30 00:57:52;;;;;;;9.35;3.30;;;;;;;17.90;100.00;99132.03;8431402;28;20063;-71
2022/06/30 01:01:52;;;;;;;6.13;3.65;;;;;;;17.96;100.00;99142.34;8379154;28;20077;-71
2022/06/30 01:05:54;;;;;;;5.72;3.53;;;;;;;17.97;100.00;99115.81;8430895;28;20052;-71
2022/06/30 01:14:15;;;;;;;5.78;3.80;;;;;;;18.01;100.00;99122.94;8384963;28;20063;-71
2022/06/30 01:18:16;;;;;;;6.65;4.18;;;;;;;18.02;100.00;99124.50;8396603;28;20480;-71
2022/06/30 01:22:17;;;;;;;7.20;3.60;;;;;;;18.06;100.00;99158.16;8381410;28;20051;-71
2022/06/30 01:26:17;;;;;;;6.18;4.15;;;;;;;17.99;100.00;99229.03;8389019;28;20489;-70
2022/06/30 01:30:19;;;;;;;11.88;3.90;;;;;;;17.90;100.00;99263.97;8388410;28;20044;-71
2022/06/30 01:39:35;;;;;;;8.05;4.28;;;;;;;17.96;100.00;99322.66;8423023;28;20047;-72
2022/06/30 01:54:38;;;;;;;14.93;5.70;;;;;;;17.98;100.00;99200.13;8421871;28;20435;-71
2022/06/30 01:58:39;;;;;;;8.45;4.88;;;;;;;17.91;100.00;99205.44;8422140;28;20097;-71
2022/06/30 02:02:41;;;;;;;8.45;5.03;;;;;;;17.89;100.00;99185.88;8422328;28;20078;-71
2022/06/30 02:06:42;;;;;;;14.50;5.47;;;;;;;17.86;100.00;99142.88;8422775;28;20044;-71
2022/06/30 02:10:44;;;;;;;9.50;4.70;;;;;;;17.85;100.00;99135.84;8422309;28;20572;-71
2022/06/30 02:14:45;;;;;;;7.82;5.30;;;;;;;17.82;100.00;99113.91;8421914;28;20048;-72
2022/06/30 02:18:46;;;;;;;10.63;5.75;;;;;;;17.81;100.00;99107.66;8420849;28;20084;-72
2022/06/30 02:22:49;;;;;;;12.73;6.28;;;;;;;17.78;100.00;99075.56;8421935;28;20435;-71
2022/06/30 02:26:50;;;;;;;9.32;5.78;;;;;;;17.76;100.00;99077.88;8420716;28;20481;-71
2022/06/30 02:30:51;;;;;;;9.52;6.20;;;;;;;17.74;100.00;99091.09;8420546;28;20450;-70
2022/06/30 02:34:53;;;;;;;9.93;6.03;;;;;;;17.71;100.00;99081.66;8421743;28;20037;-71
2022/06/30 02:38:54;;;;;;;10.70;5.50;;;;;;;17.74;100.00;99074.72;8410670;28;20105;-71
2022/06/30 02:42:55;;;;;;;7.80;5.25;;;;;;;17.71;100.00;99059.03;8420205;28;20098;-71
2022/06/30 02:46:56;;;;;;;9.52;4.95;;;;;;;17.68;100.00;99059.75;8402110;28;20044;-71
2022/06/30 02:50:57;;;;;;;10.52;5.70;;;;;;;17.68;100.00;99048.81;8420425;28;20562;-70
2022/06/30 02:54:59;;;;;;;6.82;5.10;;;;;;;17.68;100.00;99046.09;8401392;28;20052;-71
2022/06/30 02:59:00;;;;;;;9.20;5.00;;;;;;;17.68;100.00;99032.44;8379112;28;20488;-71
2022/06/30 03:03:01;;;;;;;6.07;4.85;;;;;;;17.71;100.00;99020.81;8396501;28;20036;-71
2022/06/30 03:07:02;;;;;;;6.22;4.63;;;;;;;17.73;100.00;99002.09;8397502;28;20080;-71
2022/06/30 03:11:03;;;;;;;7.45;4.68;;;;;;;17.77;100.00;98986.56;8363138;28;20085;-71
2022/06/30 03:15:04;;;;;;;6.97;4.90;;;;;;;17.79;100.00;98967.91;8397628;28;20041;-71
2022/06/30 03:19:06;;;;;;;5.35;4.40;;;;;;;17.79;100.00;98973.34;8399065;28;20477;-71
2022/06/30 03:23:07;;;;;;;9.15;4.25;;;;;;;17.78;100.00;98996.34;8396719;28;20063;-71
2022/06/30 03:27:08;;;;;;;6.88;4.60;;;;;;;17.74;100.00;99003.69;8376040;28;20044;-70
2022/06/30 03:31:09;;;;;;;7.13;4.18;;;;;;;17.71;100.00;99037.19;8397399;28;20047;-72
2022/06/30 03:35:10;;;;;;;7.97;4.38;;;;;;;17.71;100.00;99059.03;8398235;28;20122;-72
2022/06/30 03:39:11;;;;;;;5.07;4.20;;;;;;;17.72;100.00;99055.94;8384731;28;20040;-71
2022/06/30 03:43:12;;;;;;;6.50;4.28;;;;;;;17.75;100.00;99065.38;8377170;28;20059;-71
2022/06/30 03:47:13;;;;;;;11.52;4.43;;;;;;;17.79;100.00;99082.63;8397499;28;20459;-71
2022/06/30 03:51:15;;;;;;;8.43;4.32;;;;;;;17.82;100.00;99081.91;8396559;28;20049;-71
2022/06/30 03:55:17;;;;;;;6.82;4.88;;;;;;;17.84;100.00;99078.81;8396121;28;20470;-71
2022/06/30 03:59:18;;;;;;;6.45;4.38;;;;;;;17.87;100.00;99089.81;8397331;28;20060;-71
2022/06/30 04:03:19;;;;;;;9.00;4.50;;;;;;;17.90;100.00;99086.38;8396919;28;20127;-70
2022/06/30 04:07:20;;;;;;;7.93;4.78;;;;;;;17.90;100.00;99078.19;8377429;28;20515;-71
2022/06/30 04:11:21;;;;;;;9.63;4.60;;;;;;;17.94;100.00;99076.31;8360817;28;20080;-71
2022/06/30 04:15:22;;;;;;;7.72;4.40;;;;;;;17.99;100.00;99083.44;8346572;28;20053;-71
2022/06/30 04:19:23;;;;;;;7.80;4.95;;;;;;;18.04;100.00;99081.22;8360028;28;20064;-71
2022/06/30 04:23:24;;;;;;;6.03;5.10;;;;;;;18.14;100.00;99088.84;8352663;28;20112;-70
2022/06/30 04:27:25;;;;;;;8.40;5.03;;;;;;;18.31;100.00;99081.34;8343030;28;20175;-71
2022/06/30 04:35:46;;;;;;;9.30;4.97;;;;;;;18.60;100.00;99088.22;8331399;28;20785;-71
2022/06/30 04:39:47;;;;;;;6.13;5.18;;;;;;;18.70;100.00;99104.84;8287290;28;20453;-71
2022/06/30 04:43:48;;;;;;;10.70;5.53;;;;;;;18.79;100.00;99102.66;8328917;28;20132;-70
2022/06/30 04:47:49;;;;;;;9.52;5.50;;;;;;;18.83;100.00;99103.50;8374873;28;20037;-70
2022/06/30 04:51:50;;;;;;;11.32;6.03;;;;;;;18.87;100.00;99104.38;8388659;28;20068;-71
2022/06/30 04:55:52;;;;;;;10.15;6.28;;;;;;;18.91;100.00;99110.69;8382911;28;20048;-72
2022/06/30 04:59:53;;;;;;;7.70;5.95;;;;;;;19.07;100.00;99107.03;8413208;28;20045;-71
2022/06/30 05:03:54;;;;;;;8.52;5.40;;;;;;;19.17;100.00;99117.38;8388494;28;20041;-71
2022/06/30 05:07:55;;;;;;;8.35;6.00;;;;;;;19.24;100.00;99112.03;8387966;28;20131;-72
2022/06/30 05:11:56;;;;;;;8.57;5.72;;;;;;;19.30;100.00;99121.50;8348893;28;20071;-71
2022/06/30 05:15:57;;;;;;;11.80;6.07;;;;;;;19.36;100.00;99122.78;8388825;28;20052;-71
2022/06/30 05:19:59;;;;;;;9.23;6.85;;;;;;;19.48;100.00;99122.63;8386404;28;20131;-71
2022/06/30 05:28:21;;;;;;;8.30;5.72;;;;;;;19.59;100.00;99112.63;8378310;28;20041;-71
2022/06/30 05:32:23;;;;;;;13.60;6.90;;;;;;;19.66;100.00;99112.75;8391581;28;20432;-71
2022/06/30 05:36:25;;;;;;;7.93;6.72;;;;;;;19.78;100.00;99115.25;8374941;28;20128;-71
2022/06/30 05:40:27;;;;;;;6.18;5.57;;;;;;;19.88;100.00;99113.06;8392609;28;20048;-71
2022/06/30 05:44:29;;;;;;;7.90;6.10;;;;;;;19.90;100.00;99105.25;8394239;28;20120;-70
2022/06/30 05:48:30;;;;;;;10.68;5.82;;;;;;;19.90;100.00;99094.28;8356319;28;20091;-71
2022/06/30 05:52:32;;;;;;;8.50;6.03;;;;;;;19.70;100.00;99091.66;8345383;28;20053;-70
2022/06/30 05:56:33;;;;;;;11.05;6.55;;;;;;;19.58;100.00;99091.88;8324170;28;20065;-70
2022/06/30 06:00:34;;;;;;;12.15;6.25;;;;;;;19.47;100.00;99090.91;8341749;28;20057;-70
2022/06/30 06:04:35;;;;;;;8.80;5.93;;;;;;;19.42;100.00;99093.94;8367519;28;20512;-71
2022/06/30 06:08:36;;;;;;;10.35;6.50;;;;;;;19.43;100.00;99098.25;8356529;28;20128;-70
2022/06/30 06:12:37;;;;;;;14.18;7.22;;;;;;;19.45;100.00;99096.00;8355225;28;20056;-71
2022/06/30 06:16:39;;;;;;;10.10;8.02;;;;;;;19.67;100.00;99097.88;8325986;28;20083;-71
2022/06/30 06:20:41;;;;;;;10.60;8.70;;;;;;;19.90;100.00;99099.75;8357667;28;20063;-71
2022/06/30 06:24:42;;;;;;;15.93;11.80;;;;;;;20.08;100.00;99100.81;8371122;28;20485;-70
2022/06/30 06:33:02;;;;;;;19.40;11.30;;;;;;;20.34;100.00;99095.28;8402986;28;20095;-71
2022/06/30 06:37:04;;;;;;;15.55;11.38;;;;;;;20.61;100.00;99102.28;8403626;28;20072;-70
2022/06/30 06:41:08;;;;;;;13.95;11.23;;;;;;;20.89;100.00;99098.22;8408326;28;20074;-70
2022/06/30 06:45:09;;;;;;;18.45;11.35;;;;;;;21.05;100.00;99093.28;8400874;28;20520;-70
2022/06/30 06:49:10;;;;;;;15.00;11.00;;;;;;;21.15;100.00;99092.63;8403388;28;20055;-70
2022/06/30 06:53:11;;;;;;;18.00;11.60;;;;;;;21.04;100.00;99097.22;8369506;28;20060;-71
2022/06/30 06:57:12;;;;;;;19.25;13.15;;;;;;;20.93;100.00;99102.59;8376272;28;20530;-70
2022/06/30 07:01:13;;;;;;;15.02;11.10;;;;;;;21.01;100.00;99114.44;8394531;28;20041;-70
2022/06/30 07:05:14;;;;;;;17.98;12.00;;;;;;;21.10;100.00;99106.66;8380356;28;20052;-70
2022/06/30 07:09:15;;;;;;;15.68;11.98;;;;;;;21.18;100.00;99113.84;8387766;28;20086;-70
2022/06/30 07:13:16;;;;;;;14.10;11.50;;;;;;;21.31;100.00;99106.88;8399079;28;20064;-70
2022/06/30 07:17:17;;;;;;;17.38;11.27;;;;;;;21.34;100.00;99108.88;8399179;28;20052;-71
2022/06/30 07:21:20;;;;;;;17.20;11.18;;;;;;;21.43;100.00;99109.34;8400547;28;20098;-70
2022/06/30 07:25:21;;;;;;;16.58;11.10;;;;;;;21.47;100.00;99110.16;8398499;28;20135;-71
2022/06/30 07:29:22;;;;;;;15.07;10.50;;;;;;;21.48;100.00;99106.25;8376236;28;20137;-70
2022/06/30 07:33:23;;;;;;;13.88;10.30;;;;;;;21.41;100.00;99095.19;8376725;28;20053;-71
2022/06/30 07:37:42;;;;;;;14.52;11.30;;;;;;;21.48;100.00;99106.25;8401214;28;20093;-71
2022/06/30 07:42:02;;;;;;;19.13;11.70;;;;;;;21.68;100.00;99109.50;8409477;28;20491;-71
2022/06/30 07:46:04;;;;;;;15.57;11.85;;;;;;;21.81;100.00;99101.75;8377832;28;20045;-70
2022/06/30 07:50:08;;;;;;;14.13;11.55;;;;;;;22.11;100.00;99094.09;8397913;28;20500;-71
2022/06/30 07:54:10;;;;;;;18.38;13.32;;;;;;;22.32;100.00;99110.69;8397213;28;20052;-70
2022/06/30 07:58:10;;;;;;;17.58;12.07;;;;;;;22.36;100.00;99109.94;8398019;28;20560;-70
2022/06/30 08:02:12;;;;;;;19.30;11.63;;;;;;;22.38;100.00;99113.06;8409075;28;20044;-71
2022/06/30 08:06:13;;;;;;;18.92;12.23;;;;;;;22.40;100.00;99127.25;8414615;28;20123;-71
2022/06/30 08:10:14;;;;;;;19.08;12.38;;;;;;;22.48;100.00;99117.81;8394639;28;20054;-71
2022/06/30 08:14:15;;;;;;;15.40;12.02;;;;;;;22.46;100.00;99120.19;8430310;28;20040;-71
2022/06/30 08:18:16;;;;;;;18.55;11.60;;;;;;;22.46;100.00;99115.47;8386064;28;20048;-71
2022/06/30 08:22:17;;;;;;;14.43;11.07;;;;;;;22.60;100.00;99115.53;8416203;28;20036;-71
2022/06/30 08:26:18;;;;;;;20.65;11.52;;;;;;;22.78;100.00;99121.13;8413975;28;20052;-71
2022/06/30 08:30:19;;;;;;;16.77;11.70;;;;;;;22.96;100.00;99105.41;8415361;28;20051;-70
2022/06/30 08:34:20;;;;;;;16.48;10.90;;;;;;;23.11;100.00;99112.50;8411908;28;20616;-71
2022/06/30 08:38:22;;;;;;;18.30;13.32;;;;;;;23.27;100.00;99114.09;8395173;28;20040;-71
2022/06/30 08:42:25;;;;;;;17.00;12.80;;;;;;;23.47;100.00;99112.56;8385235;28;20048;-71
2022/06/30 08:46:29;;;;;;;19.73;13.30;;;;;;;23.59;100.00;99101.13;8383189;28;20083;-70
2022/06/30 08:50:30;;;;;;;15.60;11.77;;;;;;;23.74;100.00;99088.88;8396220;28;20098;-71
2022/06/30 08:54:31;;;;;;;16.50;12.07;;;;;;;23.94;96.74;99103.84;8397285;28;20084;-71
2022/06/30 08:58:33;;;;;;;14.43;12.55;;;;;;;24.13;95.13;99102.59;8382744;28;20049;-71
2022/06/30 09:02:34;;;;;;;20.83;12.30;;;;;;;24.25;94.93;99098.63;8402378;28;20044;-70
2022/06/30 09:06:35;;;;;;;19.08;13.32;;;;;;;24.39;90.09;99090.28;8354900;28;20512;-71
2022/06/30 09:10:36;;;;;;;15.32;12.50;;;;;;;24.61;90.93;99102.03;8366403;28;20129;-71
2022/06/30 09:14:42;;;;;;;13.60;11.95;;;;;;;24.85;87.88;99089.28;8341343;28;20509;-71
2022/06/30 09:18:43;;;;;;;17.80;13.18;;;;;;;24.91;85.61;99093.19;8363005;28;20053;-71
2022/06/30 09:22:45;;;;;;;16.88;13.27;;;;;;;25.01;85.36;99086.81;8356637;28;20048;-70
2022/06/30 09:26:46;;;;;;;17.67;12.98;;;;;;;25.15;85.41;99089.47;8356046;28;20048;-71
2022/06/30 09:30:47;;;;;;;19.05;14.38;;;;;;;25.19;81.68;99098.53;8378527;28;20052;-71
2022/06/30 09:34:50;;;;;;;17.05;13.35;;;;;;;25.28;84.23;99101.59;8343075;28;20049;-71
2022/06/30 09:39:06;;;;;;;24.13;16.48;;;;;;;25.50;84.18;99100.22;8354887;28;20064;-71
2022/06/30 09:43:07;;;;;;;17.85;14.18;;;;;;;25.72;86.02;99091.78;8385995;28;20135;-82
2022/06/30 09:47:12;;;;;;;18.05;15.52;;;;;;;25.87;86.43;99082.13;8424736;28;20086;-81
2022/06/30 09:51:13;;;;;;;18.88;15.07;;;;;;;26.00;87.48;99085.94;8380108;28;20082;-81
2022/06/30 09:55:15;;;;;;;19.67;13.98;;;;;;;26.08;85.98;99092.97;8400075;28;20124;-80
2022/06/30 09:59:23;;;;;;;23.88;15.00;;;;;;;26.14;83.70;99085.78;8383886;28;20036;-81
2022/06/30 10:03:24;;;;;;;19.67;14.20;;;;;;;26.22;83.50;99076.25;8404200;28;20497;-81
2022/06/30 10:07:26;;;;;;;15.57;13.00;;;;;;;26.35;80.45;99080.00;8396453;28;20473;-82
2022/06/30 10:11:27;;;;;;;14.27;11.75;;;;;;;26.39;75.96;99075.22;8399914;28;20124;-80
2022/06/30 10:15:30;;;;;;;13.80;11.80;;;;;;;26.45;75.66;99079.09;8396709;28;20045;-81
2022/06/30 10:19:31;;;;;;;16.70;12.57;;;;;;;26.56;76.38;99089.22;8390393;28;20097;-81
2022/06/30 10:23:32;;;;;;;13.60;11.43;;;;;;;26.66;77.96;99088.31;8392854;28;20373;-81
2022/06/30 10:27:34;;;;;;;15.35;11.38;;;;;;;26.66;78.63;99071.69;8388856;28;20051;-81
2022/06/30 10:31:40;;;;;;;14.77;11.25;;;;;;;26.83;76.70;99065.09;8404817;28;20047;-79
2022/06/30 10:35:41;;;;;;;18.55;11.52;;;;;;;26.89;71.99;99069.81;8392477;28;20505;-81
2022/06/30 10:39:56;;;;;;;16.15;10.73;;;;;;;26.97;75.14;99070.47;8397468;28;20044;-80
2022/06/30 10:44:03;;;;;;;12.10;10.13;;;;;;;27.10;75.23;99063.13;8398920;28;20036;-80
2022/06/30 10:48:06;;;;;;;11.85;10.15;;;;;;;27.30;77.73;99061.22;8396508;28;20119;-82
2022/06/30 10:52:23;;;;;;;16.88;10.25;;;;;;;27.39;72.18;99068.22;8331400;28;20054;-81
2022/06/30 10:56:53;;;;;;;15.90;10.52;;;;;;;27.50;72.09;99052.19;8351860;28;20064;-81
2022/06/30 11:00:58;;;;;;;16.52;10.05;;;;;;;27.56;70.19;99056.03;8355024;28;20048;-79
2022/06/30 11:05:22;;;;;;;14.75;10.38;;;;;;;27.75;71.74;99057.28;8344875;28;20045;-81
2022/06/30 11:09:47;;;;;;;12.55;10.07;;;;;;;27.97;73.23;99048.13;8349217;28;20056;-81
2022/06/30 11:14:13;;;;;;;14.25;9.40;;;;;;;28.18;71.00;99051.72;8349756;28;20460;-81
2022/06/30 11:18:14;;;;;;;11.30;9.45;;;;;;;28.08;67.77;99048.69;8221785;28;20051;-82
2022/06/30 11:22:18;;;;;;;16.23;9.27;;;;;;;28.21;68.42;99045.31;8214645;28;20126;-81
2022/06/30 11:30:39;;;;;;;13.73;9.13;;;;;;;28.33;64.93;99048.22;8205358;28;20118;-81
2022/06/30 11:34:41;;;;;;;11.52;9.50;;;;;;;28.32;64.19;99051.41;8227521;28;20558;-80
2022/06/30 11:38:42;;;;;;;13.60;9.02;;;;;;;28.53;67.39;99045.41;8227925;28;20439;-80
2022/06/30 11:42:43;;;;;;;14.70;9.45;;;;;;;28.52;66.95;99049.38;8189649;28;20046;-80
2022/06/30 11:46:51;;;;;;;12.65;8.35;;;;;;;28.65;65.13;99047.53;8229468;28;20134;-81
2022/06/30 11:50:55;;;;;;;18.77;8.43;;;;;;;28.96;66.20;99046.03;8227805;28;20683;-81
2022/06/30 11:54:59;;;;;;;10.88;8.90;;;;;;;29.10;66.99;99047.66;8324009;28;20124;-80
2022/06/30 11:59:07;;;;;;;12.75;8.35;;;;;;;29.24;64.01;99049.31;8378877;28;20049;-81
2022/06/30 12:03:12;;;;;;;15.18;8.93;;;;;;;29.33;65.32;99041.16;8360309;28;20053;-81
2022/06/30 12:07:14;;;;;;;11.05;8.40;;;;;;;29.45;64.56;99048.81;8380070;28;20044;-82
2022/06/30 12:11:14;;;;;;;11.10;8.45;;;;;;;29.68;63.81;99040.22;8396577;28;20048;-81
2022/06/30 12:15:18;;;;;;;11.75;7.60;;;;;;;29.66;59.84;99042.66;8395899;28;20044;-80
2022/06/30 12:19:25;;;;;;;12.90;9.15;;;;;;;29.84;62.16;99041.41;8396495;28;20493;-80
2022/06/30 12:23:26;;;;;;;11.63;8.70;;;;;;;30.02;61.31;99041.72;8391919;28;20052;-80
2022/06/30 12:27:28;;;;;;;11.77;8.07;;;;;;;30.17;58.82;99037.31;8398970;28;20048;-80
2022/06/30 12:31:31;;;;;;;10.23;7.78;;;;;;;30.22;58.04;99039.53;8401739;28;20105;-80
2022/06/30 12:35:33;;;;;;;12.80;6.90;;;;;;;30.33;58.36;99045.59;8374533;28;20090;-80
2022/06/30 12:39:43;;;;;;;11.90;7.72;;;;;;;30.46;58.33;99038.00;8394313;28;20045;-81
2022/06/30 12:43:47;;;;;;;10.88;7.30;;;;;;;30.54;58.48;99028.25;8371324;28;20120;-79
2022/06/30 12:47:49;;;;;;;11.32;7.93;;;;;;;30.50;55.40;99027.59;8394801;28;20075;-83
2022/06/30 12:51:51;;;;;;;9.70;7.00;;;;;;;30.47;55.00;99028.47;8394935;28;20080;-78
2022/06/30 12:56:07;;;;;;;10.40;7.03;;;;;;;30.56;53.82;99025.78;8394434;28;20040;-81
2022/06/30 13:00:09;;;;;;;12.90;7.70;;;;;;;30.63;52.78;99025.56;8394103;28;20055;-80
2022/06/30 13:04:18;;;;;;;13.98;6.57;;;;;;;30.83;52.83;99021.75;8397452;28;20044;-80
2022/06/30 13:08:19;;;;;;;9.55;6.90;;;;;;;30.89;50.52;99008.81;8422283;28;20473;-79
2022/06/30 13:12:20;;;;;;;10.25;6.75;;;;;;;31.11;51.39;99015.28;8390255;28;20392;-80
2022/06/30 13:16:21;;;;;;;7.57;6.15;;;;;;;31.18;52.74;99012.28;8394624;28;20032;-77
2022/06/30 13:20:22;;;;;;;8.35;6.85;;;;;;;31.24;51.96;99013.28;8400514;28;20062;-80
2022/06/30 13:24:23;;;;;;;10.85;6.90;;;;;;;31.28;51.62;99005.56;8407264;28;20048;-80
2022/06/30 13:28:24;;;;;;;8.38;7.35;;;;;;;31.34;49.56;99012.13;8410955;28;20044;-80
2022/06/30 13:32:25;;;;;;;11.85;6.78;;;;;;;31.37;49.56;99005.63;8384599;28;20477;-80
2022/06/30 13:36:32;;;;;;;9.88;6.72;;;;;;;31.31;48.19;99001.84;8390316;28;20049;-80
2022/06/30 13:40:37;;;;;;;10.95;5.82;;;;;;;32.32;46.37;98999.84;8396713;28;20481;-80
2022/06/30 13:44:38;;;;;;;9.60;6.55;;;;;;;33.36;42.83;99009.25;8407177;28;20451;-79
2022/06/30 13:48:39;;;;;;;8.43;5.78;;;;;;;34.51;41.00;99000.88;8396698;28;20048;-78
2022/06/30 13:52:40;;;;;;;8.70;6.18;;;;;;;35.65;40.51;99001.59;8381377;28;20052;-81
2022/06/30 13:56:41;;;;;;;9.52;6.55;;;;;;;35.72;37.79;98984.41;8391921;28;20506;-81
2022/06/30 14:00:42;;;;;;;8.52;5.85;;;;;;;36.21;37.09;98993.00;8423792;28;20055;-81
2022/06/30 14:04:43;;;;;;;14.48;6.45;;;;;;;36.89;37.39;98973.09;8400988;28;20128;-80
2022/06/30 14:08:44;;;;;;;6.20;5.60;;;;;;;37.71;36.80;98974.63;8403321;28;20045;-80
2022/06/30 14:13:06;;;;;;;10.13;5.78;;;;;;;37.92;36.36;98967.66;8395403;28;20120;-81
2022/06/30 14:17:09;;;;;;;12.00;5.68;;;;;;;38.31;34.31;98987.00;8405663;28;20042;-81
2022/06/30 14:21:10;;;;;;;10.60;5.25;;;;;;;38.57;33.25;98990.56;8417828;28;20389;-82
2022/06/30 14:25:11;;;;;;;8.95;5.40;;;;;;;39.21;32.56;98980.69;8383827;28;20436;-83
2022/06/30 14:29:13;;;;;;;7.85;5.85;;;;;;;39.47;32.72;98977.72;8349296;28;20098;-82
2022/06/30 14:33:14;;;;;;;8.70;5.43;;;;;;;40.21;31.78;98983.06;8376493;28;20071;-82
2022/06/30 14:37:15;;;;;;;9.55;5.68;;;;;;;40.38;32.57;98976.09;8374361;28;20188;-82
2022/06/30 14:42:43;;;;;;;7.43;5.15;;;;;;;41.11;30.12;98973.94;8400842;28;20048;-81
2022/06/30 14:45:37;;;;;;;8.77;5.20;;;;;;;41.13;29.00;98977.03;8410073;28;20041;-81
2022/06/30 14:49:38;;;;;;;8.00;5.10;;;;;;;41.40;29.71;98971.75;8429896;28;20040;-80
2022/06/30 14:53:39;;;;;;;6.90;5.30;;;;;;;41.26;29.31;98974.38;8418143;28;20706;-80
2022/06/30 14:57:44;;;;;;;9.68;4.85;;;;;;;41.28;30.55;98968.97;8396270;28;20503;-80
2022/06/30 15:01:45;;;;;;;6.85;5.15;;;;;;;40.29;31.34;98967.91;8388991;28;20120;-82
2022/06/30 15:05:46;;;;;;;7.32;5.10;;;;;;;39.16;33.46;98958.84;8407677;28;20419;-82
2022/06/30 15:09:48;;;;;;;10.90;5.18;;;;;;;39.19;32.48;98957.81;8410373;28;20385;-83
2022/06/30 15:13:49;;;;;;;5.72;5.10;;;;;;;39.10;31.34;98966.53;8353735;28;20080;-82
2022/06/30 15:17:50;;;;;;;7.53;5.30;;;;;;;38.84;32.36;98970.22;8382347;28;20485;-83
2022/06/30 15:26:11;;;;;;;8.15;4.93;;;;;;;38.95;31.83;98971.59;8422806;28;20048;-81
2022/06/30 15:30:12;;;;;;;7.57;5.22;;;;;;;39.18;29.57;98974.00;8389704;28;20053;-81
2022/06/30 15:34:13;;;;;;;8.00;5.35;;;;;;;39.62;29.66;98962.09;8397949;28;20140;-81
2022/06/30 15:38:37;;;;;;;12.15;5.22;;;;;;;39.67;30.29;98964.16;8392485;28;20707;-81
2022/06/30 15:42:41;;;;;;;7.97;4.93;;;;;;;40.45;29.75;98952.94;8375188;28;20099;-83
2022/06/30 15:46:42;;;;;;;6.05;5.05;;;;;;;39.64;30.06;98948.25;8374316;28;20049;-81
2022/06/30 15:50:43;;;;;;;10.23;5.13;;;;;;;38.94;32.25;98941.81;8383437;28;20049;-80
2022/06/30 15:54:45;;;;;;;9.20;4.93;;;;;;;38.77;33.01;98925.53;8355450;28;20057;-81
2022/06/30 15:58:46;;;;;;;13.35;5.50;;;;;;;37.63;34.19;98928.47;8392230;28;20110;-82
2022/06/30 16:02:47;;;;;;;14.65;5.18;;;;;;;36.79;33.43;98918.19;8355299;28;20052;-80
2022/06/30 16:06:49;;;;;;;8.48;5.57;;;;;;;36.21;34.27;98925.53;8375579;28;20045;-81
2022/06/30 16:10:51;;;;;;;5.93;5.07;;;;;;;35.81;35.03;98936.53;8383878;28;20076;-80
2022/06/30 16:14:53;;;;;;;9.05;5.35;;;;;;;35.21;35.90;98929.28;8391445;28;20485;-81
2022/06/30 16:18:55;;;;;;;6.53;5.28;;;;;;;35.38;35.64;98930.38;8383762;28;20048;-81
2022/06/30 16:22:56;;;;;;;6.78;5.35;;;;;;;35.55;36.77;98937.09;8417799;28;20385;-80
2022/06/30 16:27:00;;;;;;;6.50;5.43;;;;;;;35.25;35.88;98934.72;8383618;28;20044;-80
2022/06/30 16:31:01;;;;;;;8.48;6.32;;;;;;;34.86;36.78;98931.06;8395638;28;20059;-80
2022/06/30 16:35:02;;;;;;;11.20;5.53;;;;;;;34.50;38.82;98932.78;8406565;28;20484;-80
2022/06/30 16:39:03;;;;;;;9.85;5.80;;;;;;;33.96;39.85;98921.75;8401643;28;20102;-81
2022/06/30 16:43:07;;;;;;;6.35;5.57;;;;;;;33.61;43.14;98919.31;8399867;28;20059;-81
2022/06/30 16:47:11;;;;;;;7.13;5.85;;;;;;;33.31;45.12;98906.31;8391042;28;20041;-81
2022/06/30 16:51:13;;;;;;;9.95;6.47;;;;;;;33.01;46.64;98899.56;8399298;28;20131;-81
2022/06/30 16:55:14;;;;;;;7.80;6.47;;;;;;;32.61;48.05;98894.84;8374743;28;20052;-81
2022/06/30 16:59:15;;;;;;;8.02;6.30;;;;;;;32.41;48.98;98897.28;8393161;28;20044;-81
2022/06/30 17:03:16;;;;;;;7.20;5.85;;;;;;;32.22;49.74;98890.81;8393572;28;20068;-81
2022/06/30 17:07:17;;;;;;;9.35;6.20;;;;;;;31.92;49.88;98888.81;8417335;28;20054;-81
2022/06/30 17:11:21;;;;;;;9.48;6.65;;;;;;;31.67;51.22;98889.00;8407147;28;20091;-81
2022/06/30 17:15:22;;;;;;;8.38;6.43;;;;;;;31.43;50.97;98892.19;8413237;28;20040;-79
2022/06/30 17:19:23;;;;;;;11.63;6.65;;;;;;;31.46;50.63;98891.28;8402030;28;20072;-81
2022/06/30 17:23:24;;;;;;;9.48;6.75;;;;;;;31.41;51.49;98883.50;8388439;28;20098;-81
2022/06/30 17:27:26;;;;;;;10.77;7.05;;;;;;;31.34;51.07;98878.19;8413305;28;20044;-80
2022/06/30 17:31:27;;;;;;;10.02;6.75;;;;;;;31.16;52.04;98878.03;8378190;28;20497;-80
2022/06/30 17:35:28;;;;;;;12.30;7.82;;;;;;;30.93;53.38;98884.03;8384793;28;20041;-82
2022/06/30 17:39:31;;;;;;;20.77;7.80;;;;;;;30.85;55.01;98891.06;8392129;28;20040;-80
2022/06/30 17:43:34;;;;;;;10.57;7.82;;;;;;;30.69;55.28;98902.38;8379042;28;20045;-81
2022/06/30 17:47:35;;;;;;;10.80;7.00;;;;;;;30.58;55.27;98900.72;8387169;28;20045;-80
2022/06/30 17:51:36;;;;;;;9.02;7.20;;;;;;;30.54;54.48;98905.63;8374548;28;20063;-78
2022/06/30 17:55:39;;;;;;;10.40;7.53;;;;;;;30.62;54.51;98904.16;8390025;28;20037;-79
2022/06/30 17:59:40;;;;;;;10.65;7.03;;;;;;;30.67;53.72;98907.63;8424095;28;20048;-80
2022/06/30 18:03:41;;;;;;;10.75;7.15;;;;;;;30.69;53.91;98905.16;8395935;28;20130;-79
2022/06/30 18:12:02;;;;;;;10.10;7.57;;;;;;;30.69;53.76;98905.16;8393207;28;20500;-81
2022/06/30 18:16:04;;;;;;;10.25;7.07;;;;;;;30.73;54.31;98905.81;8407876;28;20094;-80
2022/06/30 18:20:05;;;;;;;11.32;7.47;;;;;;;30.65;53.61;98904.50;8409334;28;20067;-80
2022/06/30 18:24:06;;;;;;;12.35;7.25;;;;;;;30.51;53.49;98898.16;8406307;28;20060;-80
2022/06/30 18:28:07;;;;;;;19.15;7.85;;;;;;;30.39;54.39;98893.38;8388250;28;20043;-81
2022/06/30 18:32:08;;;;;;;11.57;8.00;;;;;;;30.26;55.31;98892.56;8417484;28;20064;-80
2022/06/30 18:36:09;;;;;;;11.07;7.90;;;;;;;30.14;57.78;98915.63;8386668;28;20127;-80
2022/06/30 18:40:10;;;;;;;11.15;8.10;;;;;;;30.00;59.26;98910.50;8378640;28;20052;-80
2022/06/30 18:44:11;;;;;;;9.75;8.07;;;;;;;29.82;59.92;98910.25;8418625;28;20024;-80
2022/06/30 18:48:12;;;;;;;10.63;7.82;;;;;;;29.64;61.16;98911.53;8418585;28;20462;-80
2022/06/30 18:52:13;;;;;;;12.07;8.75;;;;;;;29.56;61.40;98915.72;8402273;28;20485;-80
2022/06/30 18:56:17;;;;;;;11.13;8.93;;;;;;;29.40;61.86;98913.00;8407351;28;20128;-80
2022/06/30 19:00:19;;;;;;;11.93;8.75;;;;;;;29.21;62.63;98925.03;8425706;28;20544;-79
2022/06/30 19:04:20;;;;;;;13.35;8.52;;;;;;;29.05;62.42;98922.28;8393229;28;20140;-79
2022/06/30 19:08:21;;;;;;;15.35;9.05;;;;;;;28.87;62.31;98909.63;8377718;28;20090;-79
2022/06/30 19:12:22;;;;;;;13.40;8.68;;;;;;;28.81;61.91;98928.06;8420068;28;20064;-78
2022/06/30 19:16:23;;;;;;;11.52;8.60;;;;;;;28.68;62.65;98935.50;8418458;28;20069;-78
2022/06/30 19:20:25;;;;;;;10.90;8.95;;;;;;;28.45;63.41;98938.44;8414811;28;20093;-77
2022/06/30 19:24:28;;;;;;;12.52;8.82;;;;;;;28.24;64.61;98941.69;8376631;28;20051;-78
2022/06/30 19:28:30;;;;;;;13.43;10.00;;;;;;;28.02;65.47;98928.25;8392025;28;20040;-79
2022/06/30 19:32:32;;;;;;;12.80;9.43;;;;;;;27.90;66.40;98926.16;8364374;28;20129;-79